createdAt,value
2022-08-17T00:00:36.894Z,100784.50
2022-08-17T00:03:08.835Z,100780.69
2022-08-17T00:05:49.221Z,100780.78
2022-08-17T00:08:20.759Z,100791.53
2022-08-17T00:10:49.870Z,100781.66
2022-08-17T00:13:27.512Z,100778.06
2022-08-17T00:16:02.861Z,100774.66
2022-08-17T00:19:01.627Z,100772.97
2022-08-17T00:21:23.889Z,100760.56
2022-08-17T00:23:53.626Z,100768.53
2022-08-17T00:26:43.427Z,100760.50
2022-08-17T00:29:09.916Z,100763.28
2022-08-17T00:31:46.983Z,100754.59
2022-08-17T00:34:14.054Z,100747.63
2022-08-17T00:36:41.086Z,100754.81
2022-08-17T00:39:08.083Z,100753.94
2022-08-17T00:41:35.888Z,100747.59
2022-08-17T00:44:05.997Z,100743.03
2022-08-17T00:46:39.289Z,100740.38
2022-08-17T00:49:09.668Z,100745.66
2022-08-17T00:51:49.673Z,100734.03
2022-08-17T00:54:30.141Z,100735.81
2022-08-17T00:57:30.912Z,100742.78
2022-08-17T01:00:18.850Z,100732.16
2022-08-17T01:02:48.187Z,100745.50
2022-08-17T01:05:23.684Z,100739.22
2022-08-17T01:07:53.621Z,100732.94
2022-08-17T01:10:59.305Z,100734.78
2022-08-17T01:13:16.181Z,100733.09
2022-08-17T01:16:02.651Z,100733.03
2022-08-17T01:18:31.160Z,100729.53
2022-08-17T01:21:14.187Z,100726.91
2022-08-17T01:23:42.446Z,100724.00
2022-08-17T01:26:09.548Z,100728.44
2022-08-17T01:28:54.652Z,100720.34
2022-08-17T01:31:25.522Z,100726.47
2022-08-17T01:33:53.034Z,100729.94
2022-08-17T01:36:20.258Z,100729.00
2022-08-17T01:38:47.309Z,100729.06
2022-08-17T01:41:16.690Z,100724.56
2022-08-17T01:43:59.228Z,100723.75
2022-08-17T01:46:32.083Z,100722.94
2022-08-17T01:48:59.737Z,100723.91
2022-08-17T01:51:32.700Z,100720.31
2022-08-17T01:54:08.678Z,100729.38
2022-08-17T01:56:44.076Z,100725.81
2022-08-17T01:59:15.542Z,100728.66
2022-08-17T02:01:44.232Z,100726.03
2022-08-17T02:04:12.223Z,100724.19
2022-08-17T02:06:53.765Z,100727.84
2022-08-17T02:09:29.914Z,100737.56
2022-08-17T02:11:59.966Z,100733.03
2022-08-17T02:14:47.075Z,100737.47
2022-08-17T02:17:14.115Z,100745.44
2022-08-17T02:19:41.904Z,100736.50
2022-08-17T02:22:09.032Z,100732.22
2022-08-17T02:25:00.720Z,100726.03
2022-08-17T02:27:25.567Z,100742.94
2022-08-17T02:29:52.661Z,100744.75
2022-08-17T02:32:27.604Z,100747.38
2022-08-17T02:34:57.156Z,100748.25
2022-08-17T02:37:25.749Z,100753.66
2022-08-17T02:39:53.395Z,100751.09
2022-08-17T02:42:29.606Z,100758.19
2022-08-17T02:44:56.616Z,100757.31
2022-08-17T02:47:23.800Z,100765.41
2022-08-17T02:49:54.203Z,100768.16
2022-08-17T02:52:42.684Z,100769.13
2022-08-17T02:55:16.791Z,100776.34
2022-08-17T02:57:44.740Z,100776.34
2022-08-17T03:00:23.642Z,100776.50
2022-08-17T03:02:51.962Z,100793.41
2022-08-17T03:05:22.550Z,100783.66
2022-08-17T03:07:49.745Z,100783.66
2022-08-17T03:10:17.961Z,100774.03
2022-08-17T03:12:46.615Z,100772.22
2022-08-17T03:15:26.572Z,100770.50
2022-08-17T03:17:55.542Z,100771.31
2022-08-17T03:20:24.817Z,100780.22
2022-08-17T03:23:02.685Z,100770.50
2022-08-17T03:25:39.609Z,100777.66
2022-08-17T03:28:07.247Z,100758.97
2022-08-17T03:30:34.942Z,100761.59
2022-08-17T03:33:06.143Z,100753.56
2022-08-17T03:35:36.432Z,100754.47
2022-08-17T03:38:05.054Z,100759.91
2022-08-17T03:40:55.545Z,100758.03
2022-08-17T03:43:22.405Z,100756.28
2022-08-17T03:46:10.972Z,100760.78
2022-08-17T03:49:15.379Z,100753.59
2022-08-17T03:52:01.205Z,100759.84
2022-08-17T03:54:46.682Z,100753.66
2022-08-17T03:57:13.972Z,100760.81
2022-08-17T03:59:41.391Z,100765.25
2022-08-17T04:02:33.669Z,100753.72
2022-08-17T04:05:01.774Z,100760.00
2022-08-17T04:07:30.866Z,100754.69
2022-08-17T04:09:59.410Z,100770.78
2022-08-17T04:12:32.148Z,100774.38
2022-08-17T04:14:59.773Z,100778.91
2022-08-17T04:17:29.188Z,100794.00
2022-08-17T04:19:57.085Z,100781.53
2022-08-17T04:22:32.400Z,100792.25
2022-08-17T04:25:18.382Z,100802.09
2022-08-17T04:27:45.382Z,100786.88
2022-08-17T04:30:13.198Z,100789.72
2022-08-17T04:33:00.497Z,100803.13
2022-08-17T04:35:44.849Z,100818.34
2022-08-17T04:38:16.501Z,100821.03
2022-08-17T04:41:02.937Z,100811.25
2022-08-17T04:43:32.481Z,100810.53
2022-08-17T04:46:06.503Z,100800.75
2022-08-17T04:48:50.129Z,100792.75
2022-08-17T04:51:28.646Z,100793.53
2022-08-17T04:54:03.045Z,100803.31
2022-08-17T04:56:31.525Z,100804.25
2022-08-17T04:59:05.511Z,100793.53
2022-08-17T05:01:36.649Z,100802.53
2022-08-17T05:04:21.113Z,100796.25
2022-08-17T05:06:56.332Z,100797.19
2022-08-17T05:09:23.521Z,100802.59
2022-08-17T05:11:51.448Z,100802.59
2022-08-17T05:14:18.493Z,100802.59
2022-08-17T05:16:48.275Z,100813.31
2022-08-17T05:19:15.334Z,100811.44
2022-08-17T05:21:42.336Z,100805.22
2022-08-17T05:24:16.733Z,100809.69
2022-08-17T05:26:56.295Z,100813.19
2022-08-17T05:29:23.307Z,100827.31
2022-08-17T05:32:39.509Z,100858.84
2022-08-17T05:35:00.752Z,100843.16
2022-08-17T05:37:28.000Z,100846.97
2022-08-17T05:39:55.118Z,100853.25
2022-08-17T05:42:22.652Z,100853.66
2022-08-17T05:44:49.751Z,100849.97
2022-08-17T05:47:18.304Z,100856.41
2022-08-17T05:49:45.571Z,100852.25
2022-08-17T05:52:46.438Z,100863.38
2022-08-17T05:55:40.770Z,100862.88
2022-08-17T05:58:29.095Z,100868.03
2022-08-17T06:01:20.958Z,100855.03
2022-08-17T06:04:38.886Z,100859.25
2022-08-17T06:07:42.406Z,100868.94
2022-08-17T06:10:42.502Z,100871.38
2022-08-17T06:13:31.655Z,100855.97
2022-08-17T06:16:33.065Z,100860.25
2022-08-17T06:19:23.863Z,100863.59
2022-08-17T06:21:54.963Z,100864.38
2022-08-17T06:24:59.119Z,100867.00
2022-08-17T06:27:32.848Z,100876.84
2022-08-17T06:30:09.186Z,100881.28
2022-08-17T06:32:44.790Z,100877.56
2022-08-17T06:35:33.526Z,100885.41
2022-08-17T06:38:37.007Z,100879.13
2022-08-17T06:41:26.098Z,100884.50
2022-08-17T06:44:51.504Z,100883.53
2022-08-17T06:47:50.987Z,100883.28
2022-08-17T06:50:37.059Z,100887.91
2022-08-17T06:53:21.553Z,100887.03
2022-08-17T06:56:04.883Z,100892.44
2022-08-17T06:58:33.432Z,100886.06
2022-08-17T07:01:19.857Z,100886.88
2022-08-17T07:03:57.477Z,100894.00
2022-08-17T07:06:32.908Z,100895.03
2022-08-17T07:09:14.601Z,100895.03
2022-08-17T07:12:16.069Z,100901.31
2022-08-17T07:15:05.390Z,100898.63
2022-08-17T07:17:47.781Z,100912.81
2022-08-17T07:20:21.216Z,100908.38
2022-08-17T07:23:17.448Z,100916.41
2022-08-17T07:25:44.562Z,100927.97
2022-08-17T07:28:13.034Z,100928.84
2022-08-17T07:30:49.700Z,100936.16
2022-08-17T07:33:34.307Z,100936.16
2022-08-17T07:36:01.712Z,100937.03
2022-08-17T07:38:32.677Z,100948.78
2022-08-17T07:41:06.744Z,100955.13
2022-08-17T07:43:39.700Z,100951.09
2022-08-17T07:46:38.663Z,100943.16
2022-08-17T07:49:08.610Z,100946.72
2022-08-17T07:51:44.384Z,100944.03
2022-08-17T07:54:22.636Z,100938.88
2022-08-17T07:56:56.891Z,100943.31
2022-08-17T07:59:33.300Z,100948.78
2022-08-17T08:02:06.854Z,100948.72
2022-08-17T08:05:06.819Z,100944.25
2022-08-17T08:07:42.649Z,100936.16
2022-08-17T08:10:28.105Z,100939.81
2022-08-17T08:13:12.288Z,100937.91
2022-08-17T08:15:54.034Z,100939.66
2022-08-17T08:18:38.717Z,100935.22
2022-08-17T08:21:24.386Z,100932.66
2022-08-17T08:23:57.520Z,100926.41
2022-08-17T08:27:11.417Z,100925.38
2022-08-17T08:30:21.433Z,100925.38
2022-08-17T08:33:07.603Z,100936.00
2022-08-17T08:35:53.717Z,100925.13
2022-08-17T08:38:47.392Z,100932.44
2022-08-17T08:41:35.426Z,100919.81
2022-08-17T08:45:00.087Z,100921.56
2022-08-17T08:47:55.309Z,100930.28
2022-08-17T08:51:13.650Z,100938.38
2022-08-17T08:53:55.857Z,100946.16
2022-08-17T08:57:21.513Z,100945.06
2022-08-17T08:59:59.248Z,100952.84
2022-08-17T09:02:43.800Z,100958.41
2022-08-17T09:06:02.853Z,100956.66
2022-08-17T09:09:08.333Z,100967.03
2022-08-17T09:12:02.742Z,100969.97
2022-08-17T09:14:49.535Z,100964.44
2022-08-17T09:17:28.829Z,100968.94
2022-08-17T09:20:32.966Z,100964.44
2022-08-17T09:23:44.966Z,100955.38
2022-08-17T09:26:22.948Z,100961.81
2022-08-17T09:29:01.449Z,100977.13
2022-08-17T09:32:03.635Z,100991.59
2022-08-17T09:34:54.787Z,100994.34
2022-08-17T09:38:04.570Z,100995.06
2022-08-17T09:40:39.886Z,100999.53
2022-08-17T09:43:28.875Z,101001.34
2022-08-17T09:46:22.519Z,100993.63
2022-08-17T09:49:27.673Z,101007.06
2022-08-17T09:52:19.160Z,100998.09
2022-08-17T09:54:48.717Z,101006.44
2022-08-17T09:57:39.785Z,101015.72
2022-08-17T10:00:27.262Z,101009.28
2022-08-17T10:03:20.581Z,101008.34
2022-08-17T10:06:22.138Z,101015.47
2022-08-17T10:09:35.422Z,101011.50
2022-08-17T10:12:35.559Z,101022.22
2022-08-17T10:15:15.237Z,101015.78
2022-08-17T10:17:59.768Z,101024.13
2022-08-17T10:20:49.006Z,101017.00
2022-08-17T10:23:47.532Z,101008.97
2022-08-17T10:26:23.143Z,101012.63
2022-08-17T10:29:02.507Z,101018.00
2022-08-17T10:31:54.954Z,101022.53
2022-08-17T10:34:40.961Z,101021.59
2022-08-17T10:37:46.480Z,101017.13
2022-08-17T10:40:57.439Z,101012.53
2022-08-17T10:43:37.244Z,101009.03
2022-08-17T10:46:33.862Z,101000.31
2022-08-17T10:49:19.052Z,100996.97
2022-08-17T10:51:54.495Z,100995.00
2022-08-17T10:54:24.416Z,101000.78
2022-08-17T10:56:56.976Z,100993.81
2022-08-17T10:59:36.193Z,100990.31
2022-08-17T11:02:20.088Z,100981.97
2022-08-17T11:05:18.154Z,100987.13
2022-08-17T11:08:10.692Z,100984.50
2022-08-17T11:11:10.339Z,100993.81
2022-08-17T11:14:11.210Z,100991.25
2022-08-17T11:16:59.320Z,100996.72
2022-08-17T11:20:13.221Z,101000.31
2022-08-17T11:23:43.054Z,101005.63
2022-08-17T11:26:26.698Z,100999.34
2022-08-17T11:29:01.421Z,101005.69
2022-08-17T11:31:41.603Z,101002.13
2022-08-17T11:34:21.656Z,101004.84
2022-08-17T11:37:53.119Z,101000.38
2022-08-17T11:40:41.411Z,101003.09
2022-08-17T11:43:25.671Z,101003.88
2022-08-17T11:47:10.394Z,101003.00
2022-08-17T11:50:10.986Z,101007.44
2022-08-17T11:52:50.076Z,101008.41
2022-08-17T11:55:35.843Z,101008.47
2022-08-17T11:58:26.483Z,101002.13
2022-08-17T12:01:13.491Z,101003.00
2022-08-17T12:03:54.459Z,100994.13
2022-08-17T12:06:44.857Z,101000.47
2022-08-17T12:09:24.889Z,101001.34
2022-08-17T12:12:12.894Z,101005.69
2022-08-17T12:15:11.930Z,101002.22
2022-08-17T12:17:42.623Z,101010.31
2022-08-17T12:20:38.099Z,101012.06
2022-08-17T12:23:35.851Z,101009.34
2022-08-17T12:26:16.628Z,101009.34
2022-08-17T12:28:52.898Z,101010.22
2022-08-17T12:31:30.999Z,101011.19
2022-08-17T12:34:00.455Z,101014.91
2022-08-17T12:36:28.817Z,101023.94
2022-08-17T12:39:13.705Z,101028.44
2022-08-17T12:41:47.023Z,101030.22
2022-08-17T12:44:27.746Z,101039.19
2022-08-17T12:47:07.745Z,101049.13
2022-08-17T12:49:39.286Z,101050.00
2022-08-17T12:52:16.034Z,101052.81
2022-08-17T12:55:06.199Z,101049.25
2022-08-17T12:57:38.976Z,101040.28
2022-08-17T13:00:22.486Z,101043.84
2022-08-17T13:02:56.299Z,101033.91
2022-08-17T13:05:31.566Z,101033.03
2022-08-17T13:08:00.199Z,101027.66
2022-08-17T13:10:33.589Z,101032.16
2022-08-17T13:13:17.695Z,101030.34
2022-08-17T13:15:55.634Z,101028.53
2022-08-17T13:18:40.912Z,101028.53
2022-08-17T13:21:30.681Z,101028.53
2022-08-17T13:24:06.950Z,101018.59
2022-08-17T13:27:08.385Z,101024.88
2022-08-17T13:29:53.730Z,101024.94
2022-08-17T13:32:47.172Z,101012.47
2022-08-17T13:35:49.962Z,101006.13
2022-08-17T13:38:39.545Z,101010.59
2022-08-17T13:41:07.558Z,101002.63
2022-08-17T13:43:48.529Z,101011.53
2022-08-17T13:46:31.127Z,101005.34
2022-08-17T13:49:06.731Z,101007.09
2022-08-17T13:51:45.364Z,101007.88
2022-08-17T13:54:24.288Z,101005.19
2022-08-17T13:57:17.148Z,101007.88
2022-08-17T13:59:54.278Z,101007.88
2022-08-17T14:02:27.599Z,101005.19
2022-08-17T14:04:56.875Z,101013.28
2022-08-17T14:07:32.201Z,101007.88
2022-08-17T14:10:17.404Z,101012.34
2022-08-17T14:12:46.073Z,101013.28
2022-08-17T14:15:17.049Z,101019.56
2022-08-17T14:17:44.394Z,101015.91
2022-08-17T14:20:14.134Z,101024.00
2022-08-17T14:22:46.386Z,101025.75
2022-08-17T14:25:24.496Z,101033.91
2022-08-17T14:27:54.141Z,101035.75
2022-08-17T14:30:29.924Z,101037.50
2022-08-17T14:32:58.438Z,101034.88
2022-08-17T14:35:27.937Z,101038.44
2022-08-17T14:37:55.695Z,101032.16
2022-08-17T14:40:25.042Z,101035.75
2022-08-17T14:42:55.307Z,101030.44
2022-08-17T14:45:31.773Z,101032.31
2022-08-17T14:48:08.972Z,101027.81
2022-08-17T14:50:41.848Z,100993.16
2022-08-17T14:53:14.767Z,101005.19
2022-08-17T14:55:42.022Z,101010.28
2022-08-17T14:58:09.524Z,101017.78
2022-08-17T15:00:37.320Z,101011.75
2022-08-17T15:03:05.345Z,101013.88
2022-08-17T15:05:36.856Z,101022.81
2022-08-17T15:08:05.586Z,101022.22
2022-08-17T15:10:33.339Z,101022.38
2022-08-17T15:13:00.590Z,101022.63
2022-08-17T15:15:28.913Z,101027.06
2022-08-17T15:17:56.680Z,101010.03
2022-08-17T15:20:29.793Z,101018.94
2022-08-17T15:22:57.532Z,101021.56
2022-08-17T15:25:28.783Z,101014.41
2022-08-17T15:27:57.327Z,101008.31
2022-08-17T15:30:25.964Z,101013.88
2022-08-17T15:32:55.506Z,101014.81
2022-08-17T15:35:30.321Z,101001.41
2022-08-17T15:38:06.147Z,101008.59
2022-08-17T15:40:36.731Z,101007.72
2022-08-17T15:43:17.337Z,101008.66
2022-08-17T15:45:58.610Z,101009.91
2022-08-17T15:48:42.202Z,101023.59
2022-08-17T15:51:15.012Z,101010.59
2022-08-17T15:53:46.167Z,101006.25
2022-08-17T15:56:15.076Z,101000.66
2022-08-17T15:58:44.255Z,100991.19
2022-08-17T16:01:14.914Z,100987.50
2022-08-17T16:04:02.217Z,100994.81
2022-08-17T16:06:34.635Z,100985.00
2022-08-17T16:09:01.926Z,100984.84
2022-08-17T16:11:28.926Z,100981.22
2022-08-17T16:13:56.163Z,100982.03
2022-08-17T16:16:24.268Z,100978.47
2022-08-17T16:18:53.655Z,100977.63
2022-08-17T16:21:27.147Z,100973.97
2022-08-17T16:24:02.788Z,100981.13
2022-08-17T16:26:31.975Z,100991.84
2022-08-17T16:29:03.506Z,100996.13
2022-08-17T16:31:31.401Z,100997.97
2022-08-17T16:34:16.986Z,100992.72
2022-08-17T16:36:54.639Z,100996.00
2022-08-17T16:39:29.134Z,101008.50
2022-08-17T16:41:57.548Z,101013.09
2022-08-17T16:44:25.894Z,101013.00
2022-08-17T16:46:53.451Z,101015.66
2022-08-17T16:49:36.157Z,101023.66
2022-08-17T16:52:10.033Z,101031.03
2022-08-17T16:54:43.499Z,101031.91
2022-08-17T16:57:12.224Z,101035.44
2022-08-17T16:59:43.594Z,101047.16
2022-08-17T17:02:15.359Z,101043.50
2022-08-17T17:05:00.053Z,101054.22
2022-08-17T17:07:51.098Z,101060.41
2022-08-17T17:10:23.841Z,101062.28
2022-08-17T17:13:01.377Z,101053.28
2022-08-17T17:15:58.661Z,101053.38
2022-08-17T17:19:01.643Z,101057.81
2022-08-17T17:22:10.965Z,101065.03
2022-08-17T17:24:50.199Z,101061.56
2022-08-17T17:27:32.441Z,101064.38
2022-08-17T17:30:06.584Z,101063.56
2022-08-17T17:32:55.810Z,101052.78
2022-08-17T17:35:59.174Z,101043.88
2022-08-17T17:38:43.171Z,101058.31
2022-08-17T17:41:25.847Z,101059.22
2022-08-17T17:44:05.813Z,101066.47
2022-08-17T17:46:43.113Z,101058.44
2022-08-17T17:49:14.363Z,101059.41
2022-08-17T17:52:06.567Z,101055.84
2022-08-17T17:54:58.521Z,101055.75
2022-08-17T17:57:38.394Z,101057.69
2022-08-17T18:00:16.998Z,101061.31
2022-08-17T18:03:18.596Z,101053.44
2022-08-17T18:06:13.193Z,101053.47
2022-08-17T18:09:03.056Z,101050.94
2022-08-17T18:12:11.445Z,101051.91
2022-08-17T18:15:51.629Z,101051.81
2022-08-17T18:18:18.675Z,101052.94
2022-08-17T18:20:54.115Z,101055.56
2022-08-17T18:23:28.018Z,101047.72
2022-08-17T18:25:58.702Z,101046.78
2022-08-17T18:28:43.973Z,101053.94
2022-08-17T18:31:19.932Z,101048.63
2022-08-17T18:34:29.451Z,101056.66
2022-08-17T18:36:59.579Z,101066.47
2022-08-17T18:39:28.664Z,101061.22
2022-08-17T18:42:00.115Z,101061.22
2022-08-17T18:44:49.609Z,101063.06
2022-08-17T18:47:29.276Z,101063.97
2022-08-17T18:50:21.116Z,101065.72
2022-08-17T18:52:48.801Z,101072.91
2022-08-17T18:55:31.348Z,101067.72
2022-08-17T18:58:25.638Z,101071.28
2022-08-17T19:00:52.942Z,101072.22
2022-08-17T19:03:26.599Z,101078.50
2022-08-17T19:06:28.397Z,101063.38
2022-08-17T19:08:55.484Z,101072.34
2022-08-17T19:11:35.699Z,101067.03
2022-08-17T19:14:13.750Z,101072.47
2022-08-17T19:17:02.343Z,101072.47
2022-08-17T19:19:54.261Z,101080.44
2022-08-17T19:23:07.313Z,101099.22
2022-08-17T19:25:42.900Z,101105.41
2022-08-17T19:28:22.407Z,101117.06
2022-08-17T19:30:59.602Z,101112.63
2022-08-17T19:33:27.627Z,101100.22
2022-08-17T19:36:22.075Z,101102.03
2022-08-17T19:39:59.494Z,101111.91
2022-08-17T19:42:54.009Z,101112.97
2022-08-17T19:45:39.893Z,101115.59
2022-08-17T19:48:16.926Z,101107.56
2022-08-17T19:51:06.542Z,101124.63
2022-08-17T19:54:15.119Z,101139.91
2022-08-17T19:57:11.532Z,101136.31
2022-08-17T19:59:57.839Z,101147.84
2022-08-17T20:02:43.596Z,101125.66
2022-08-17T20:05:19.703Z,101144.44
2022-08-17T20:08:03.893Z,101148.03
2022-08-17T20:10:37.522Z,101150.78
2022-08-17T20:13:15.371Z,101151.69
2022-08-17T20:15:44.941Z,101152.66
2022-08-17T20:18:35.172Z,101150.91
2022-08-17T20:21:26.878Z,101150.13
2022-08-17T20:24:20.673Z,101156.34
2022-08-17T20:26:59.529Z,101152.00
2022-08-17T20:29:54.724Z,101141.31
2022-08-17T20:32:27.952Z,101139.63
2022-08-17T20:35:36.532Z,101142.28
2022-08-17T20:38:04.888Z,101141.47
2022-08-17T20:40:36.741Z,101142.34
2022-08-17T20:43:34.678Z,101143.31
2022-08-17T20:46:37.407Z,101155.84
2022-08-17T20:49:55.369Z,101151.38
2022-08-17T20:52:58.797Z,101146.13
2022-08-17T20:55:51.165Z,101152.34
2022-08-17T20:58:24.957Z,101145.28
2022-08-17T21:00:58.684Z,101148.88
2022-08-17T21:03:28.688Z,101144.50
2022-08-17T21:06:19.564Z,101146.38
2022-08-17T21:09:15.724Z,101137.66
2022-08-17T21:12:05.022Z,101143.03
2022-08-17T21:14:58.703Z,101145.69
2022-08-17T21:17:44.436Z,101144.84
2022-08-17T21:20:42.355Z,101141.25
2022-08-17T21:23:30.236Z,101135.97
2022-08-17T21:26:38.978Z,101142.28
2022-08-17T21:29:31.338Z,101144.13
2022-08-17T21:32:03.105Z,101146.91
2022-08-17T21:34:36.805Z,101149.69
2022-08-17T21:37:19.097Z,101150.69
2022-08-17T21:39:58.465Z,101156.09
2022-08-17T21:42:32.650Z,101169.41
2022-08-17T21:45:30.540Z,101168.50
2022-08-17T21:48:15.067Z,101182.69
2022-08-17T21:50:57.536Z,101171.16
2022-08-17T21:53:49.435Z,101174.69
2022-08-17T21:56:48.319Z,101185.50
2022-08-17T21:59:30.323Z,101188.09
2022-08-17T22:02:01.133Z,101183.72
2022-08-17T22:04:39.174Z,101181.84
2022-08-17T22:07:13.152Z,101192.56
2022-08-17T22:09:48.952Z,101203.22
2022-08-17T22:12:24.131Z,101200.50
2022-08-17T22:15:06.047Z,101195.19
2022-08-17T22:17:45.168Z,101201.34
2022-08-17T22:20:20.844Z,101190.75
2022-08-17T22:23:08.996Z,101196.94
2022-08-17T22:25:41.241Z,101188.03
2022-08-17T22:28:12.504Z,101183.59
2022-08-17T22:30:42.247Z,101185.34
2022-08-17T22:33:44.466Z,101185.34
2022-08-17T22:36:33.709Z,101189.75
2022-08-17T22:39:09.441Z,101186.22
2022-08-17T22:41:48.283Z,101187.13
2022-08-17T22:44:37.817Z,101183.59
2022-08-17T22:47:38.693Z,101188.94
2022-08-17T22:50:24.691Z,101190.69
2022-08-17T22:53:20.901Z,101193.34
2022-08-17T22:56:13.135Z,101194.28
2022-08-17T22:59:10.732Z,101197.84
2022-08-17T23:01:39.202Z,101202.31
2022-08-17T23:04:32.612Z,101209.41
2022-08-17T23:06:59.716Z,101212.94
2022-08-17T23:09:26.792Z,101213.84
2022-08-17T23:11:58.637Z,101212.00
2022-08-17T23:14:32.458Z,101212.03
2022-08-17T23:17:01.018Z,101214.69
2022-08-17T23:19:31.836Z,101211.09
2022-08-17T23:22:02.684Z,101205.78
2022-08-17T23:24:35.630Z,101206.66
2022-08-17T23:27:07.406Z,101210.22
2022-08-17T23:29:35.389Z,101221.75
2022-08-17T23:32:04.740Z,101217.28
2022-08-17T23:34:32.202Z,101213.69
2022-08-17T23:37:02.748Z,101205.66
2022-08-17T23:39:29.945Z,101207.41
2022-08-17T23:42:00.154Z,101211.00
2022-08-17T23:44:28.829Z,101203.91
2022-08-17T23:46:56.469Z,101210.16
2022-08-17T23:49:25.211Z,101203.94
2022-08-17T23:51:54.768Z,101203.94
2022-08-17T23:54:37.436Z,101196.00
2022-08-17T23:57:04.977Z,101196.88
2022-08-17T23:59:33.888Z,101192.44
